Аэропорт: Ульяновск-Восточный. Ульяновск

ICAO: UWLW

METAR:
2019/01/21 23:00
UWLW 212300Z 23003MPS 8000 FEW015 M12/M13 Q1006 R20/423046 NOSIG RMK QFE749
METAR:
2019/01/21 21:21
TAF UWLW 211945Z 2121/2221 18003MPS 5000 -SN OVC011 
      TEMPO 2121/2124 23006MPS 3100 -SN BR OVC006 
      BECMG 2200/2201 28003MPS 
      TEMPO 2201/2212 23006MPS 3100 -SN BR OVC007